createdAt,value
2022-10-19T00:01:21.981Z,1.83
2022-10-19T00:03:51.949Z,1.55
2022-10-19T00:06:26.183Z,1.30
2022-10-19T00:08:58.707Z,1.30
2022-10-19T00:11:26.259Z,1.37
2022-10-19T00:13:55.137Z,1.50
2022-10-19T00:16:23.346Z,1.40
2022-10-19T00:18:50.271Z,1.35
2022-10-19T00:21:19.693Z,1.83
2022-10-19T00:23:46.920Z,2.12
2022-10-19T00:26:13.908Z,2.40
2022-10-19T00:28:41.352Z,1.90
2022-10-19T00:31:14.795Z,1.70
2022-10-19T00:33:42.862Z,2.10
2022-10-19T00:36:39.383Z,2.08
2022-10-19T00:39:10.666Z,1.80
2022-10-19T00:41:38.465Z,2.08
2022-10-19T00:44:15.919Z,1.85
2022-10-19T00:46:45.679Z,2.00
2022-10-19T00:49:25.737Z,2.00
2022-10-19T00:52:21.286Z,2.00
2022-10-19T00:54:50.633Z,2.20
2022-10-19T00:57:18.023Z,2.62
2022-10-19T00:59:46.327Z,1.77
2022-10-19T01:02:13.814Z,2.15
2022-10-19T01:04:45.813Z,1.75
2022-10-19T01:07:13.644Z,1.37
2022-10-19T01:09:40.745Z,1.30
2022-10-19T01:12:11.511Z,1.30
2022-10-19T01:14:43.923Z,1.50
2022-10-19T01:17:11.459Z,1.37
2022-10-19T01:20:12.064Z,1.08
2022-10-19T01:23:12.119Z,1.50
2022-10-19T01:25:45.046Z,1.55
2022-10-19T01:28:27.442Z,1.30
2022-10-19T01:31:23.959Z,1.20
2022-10-19T01:34:10.922Z,1.17
2022-10-19T01:37:02.726Z,1.10
2022-10-19T01:39:49.899Z,0.95
2022-10-19T01:42:30.704Z,1.05
2022-10-19T01:45:29.566Z,1.20
2022-10-19T01:48:07.090Z,0.98
2022-10-19T01:50:39.449Z,0.85
2022-10-19T01:53:09.071Z,0.85
2022-10-19T01:55:39.315Z,0.90
2022-10-19T01:58:09.709Z,0.80
2022-10-19T02:00:41.262Z,1.35
2022-10-19T02:03:10.169Z,0.65
2022-10-19T02:05:38.225Z,1.12
2022-10-19T02:08:27.964Z,0.90
2022-10-19T02:10:56.148Z,1.00
2022-10-19T02:13:24.825Z,0.80
2022-10-19T02:15:54.883Z,0.95
2022-10-19T02:18:31.005Z,0.90
2022-10-19T02:20:58.565Z,0.80
2022-10-19T02:23:27.801Z,0.95
2022-10-19T02:25:56.078Z,0.90
2022-10-19T02:28:26.967Z,1.20
2022-10-19T02:30:53.939Z,0.90
2022-10-19T02:33:20.989Z,0.82
2022-10-19T02:35:48.315Z,1.10
2022-10-19T02:38:20.054Z,1.05
2022-10-19T02:40:58.010Z,0.98
2022-10-19T02:43:28.290Z,0.93
2022-10-19T02:46:19.586Z,0.73
2022-10-19T02:48:48.746Z,1.10
2022-10-19T02:51:30.207Z,1.10
2022-10-19T02:53:58.995Z,0.70
2022-10-19T02:56:28.429Z,0.85
2022-10-19T02:58:55.480Z,0.80
2022-10-19T03:01:22.593Z,1.10
2022-10-19T03:03:49.473Z,1.00
2022-10-19T03:06:16.479Z,0.98
2022-10-19T03:08:43.602Z,0.75
2022-10-19T03:11:10.914Z,0.90
2022-10-19T03:13:37.850Z,1.05
2022-10-19T03:16:10.155Z,0.85
2022-10-19T03:18:37.226Z,1.00
2022-10-19T03:21:14.459Z,0.88
2022-10-19T03:23:42.005Z,0.57
2022-10-19T03:26:12.491Z,0.88
2022-10-19T03:28:39.807Z,0.90
2022-10-19T03:31:06.863Z,0.88
2022-10-19T03:33:33.995Z,0.80
2022-10-19T03:36:37.395Z,0.77
2022-10-19T03:39:07.668Z,0.70
2022-10-19T03:41:36.487Z,0.75
2022-10-19T03:44:04.278Z,0.90
2022-10-19T03:46:31.228Z,0.70
2022-10-19T03:48:58.179Z,0.80
2022-10-19T03:51:27.494Z,0.57
2022-10-19T03:53:56.322Z,1.15
2022-10-19T03:56:25.143Z,0.70
2022-10-19T03:58:53.791Z,0.57
2022-10-19T04:01:31.177Z,0.70
2022-10-19T04:04:01.295Z,0.80
2022-10-19T04:06:30.890Z,0.77
2022-10-19T04:08:58.656Z,0.82
2022-10-19T04:11:28.185Z,0.68
2022-10-19T04:13:56.545Z,1.37
2022-10-19T04:16:24.996Z,0.60
2022-10-19T04:18:51.959Z,0.52
2022-10-19T04:21:36.452Z,0.70
2022-10-19T04:24:09.994Z,0.73
2022-10-19T04:26:45.315Z,0.80
2022-10-19T04:29:12.315Z,0.70
2022-10-19T04:31:40.471Z,0.70
2022-10-19T04:34:08.314Z,1.12
2022-10-19T04:36:35.398Z,0.73
2022-10-19T04:39:02.815Z,0.93
2022-10-19T04:41:29.750Z,0.52
2022-10-19T04:44:04.397Z,0.80
2022-10-19T04:46:31.340Z,0.80
2022-10-19T04:48:59.270Z,0.90
2022-10-19T04:51:27.133Z,1.10
2022-10-19T04:53:59.344Z,1.00
2022-10-19T04:56:28.275Z,1.77
2022-10-19T04:58:57.573Z,0.98
2022-10-19T05:01:26.143Z,0.90
2022-10-19T05:03:58.543Z,1.05
2022-10-19T05:06:26.069Z,0.85
2022-10-19T05:08:53.301Z,0.95
2022-10-19T05:11:20.946Z,0.70
2022-10-19T05:13:48.449Z,0.80
2022-10-19T05:16:18.379Z,0.70
2022-10-19T05:18:50.097Z,0.60
2022-10-19T05:21:17.654Z,0.70
2022-10-19T05:23:45.143Z,0.70
2022-10-19T05:26:15.662Z,0.50
2022-10-19T05:28:42.735Z,0.60
2022-10-19T05:31:20.558Z,0.65
2022-10-19T05:33:47.684Z,0.70
2022-10-19T05:36:25.586Z,0.60
2022-10-19T05:38:54.160Z,0.40
2022-10-19T05:41:22.342Z,0.52
2022-10-19T05:43:54.049Z,0.50
2022-10-19T05:46:21.156Z,0.47
2022-10-19T05:48:48.240Z,1.17
2022-10-19T05:51:18.571Z,0.40
2022-10-19T05:53:46.212Z,0.40
2022-10-19T05:56:17.741Z,0.30
2022-10-19T05:58:45.525Z,0.40
2022-10-19T06:01:14.281Z,0.30
2022-10-19T06:03:41.664Z,0.60
2022-10-19T06:06:09.332Z,0.60
2022-10-19T06:08:37.379Z,0.52
2022-10-19T06:11:11.975Z,0.73
2022-10-19T06:13:40.446Z,0.43
2022-10-19T06:16:08.962Z,0.60
2022-10-19T06:18:36.398Z,0.50
2022-10-19T06:21:10.239Z,0.60
2022-10-19T06:23:37.631Z,0.37
2022-10-19T06:26:07.667Z,0.50
2022-10-19T06:28:35.862Z,0.55
2022-10-19T06:31:05.930Z,0.60
2022-10-19T06:33:35.564Z,0.45
2022-10-19T06:36:23.199Z,0.52
2022-10-19T06:38:50.797Z,0.75
2022-10-19T06:41:17.836Z,1.55
2022-10-19T06:43:44.986Z,0.70
2022-10-19T06:46:20.550Z,0.80
2022-10-19T06:48:58.840Z,0.52
2022-10-19T06:51:27.870Z,0.70
2022-10-19T06:53:57.184Z,0.50
2022-10-19T06:56:25.914Z,0.68
2022-10-19T06:58:53.504Z,0.60
2022-10-19T07:01:20.941Z,0.70
2022-10-19T07:03:47.947Z,0.50
2022-10-19T07:06:14.872Z,0.70
2022-10-19T07:08:42.928Z,0.70
2022-10-19T07:11:12.447Z,0.57
2022-10-19T07:13:39.397Z,0.57
2022-10-19T07:16:15.941Z,0.60
2022-10-19T07:18:47.329Z,0.68
2022-10-19T07:21:16.047Z,0.50
2022-10-19T07:23:44.695Z,0.47
2022-10-19T07:26:15.236Z,0.80
2022-10-19T07:28:44.234Z,0.98
2022-10-19T07:31:14.157Z,0.43
2022-10-19T07:33:41.306Z,0.35
2022-10-19T07:36:10.961Z,0.57
2022-10-19T07:38:38.183Z,0.40
2022-10-19T07:41:12.860Z,0.50
2022-10-19T07:43:41.248Z,0.60
2022-10-19T07:46:29.584Z,0.70
2022-10-19T07:48:56.691Z,0.60
2022-10-19T07:51:23.962Z,0.70
2022-10-19T07:53:50.944Z,0.40
2022-10-19T07:56:20.827Z,0.47
2022-10-19T07:58:49.282Z,0.70
2022-10-19T08:01:25.117Z,0.50
2022-10-19T08:04:48.983Z,0.95
2022-10-19T08:06:41.274Z,0.50
2022-10-19T08:09:08.437Z,0.60
2022-10-19T08:11:35.888Z,0.40
2022-10-19T08:14:03.322Z,0.35
2022-10-19T08:16:40.445Z,0.50
2022-10-19T08:19:12.584Z,0.60
2022-10-19T08:21:41.635Z,0.75
2022-10-19T08:24:08.889Z,0.45
2022-10-19T08:26:41.147Z,0.37
2022-10-19T08:29:13.687Z,0.40
2022-10-19T08:31:41.961Z,0.55
2022-10-19T08:34:09.249Z,0.80
2022-10-19T08:36:37.250Z,0.65
2022-10-19T08:39:06.525Z,0.55
2022-10-19T08:42:06.863Z,0.40
2022-10-19T08:44:56.740Z,0.40
2022-10-19T08:47:33.422Z,0.60
2022-10-19T08:50:00.612Z,0.75
2022-10-19T08:52:34.684Z,0.50
2022-10-19T08:55:15.241Z,0.50
2022-10-19T08:57:56.869Z,0.40
2022-10-19T09:00:35.947Z,0.45
2022-10-19T09:03:32.088Z,0.70
2022-10-19T09:06:31.761Z,0.70
2022-10-19T09:08:59.373Z,0.60
2022-10-19T09:11:38.816Z,0.52
2022-10-19T09:14:16.436Z,0.65
2022-10-19T09:16:43.429Z,0.60
2022-10-19T09:19:25.881Z,0.60
2022-10-19T09:22:04.431Z,0.55
2022-10-19T09:24:52.572Z,0.55
2022-10-19T09:27:24.707Z,0.70
2022-10-19T09:29:56.430Z,0.57
2022-10-19T09:32:32.490Z,0.50
2022-10-19T09:35:25.980Z,0.95
2022-10-19T09:37:53.449Z,0.57
2022-10-19T09:40:29.437Z,0.70
2022-10-19T09:42:58.318Z,0.70
2022-10-19T09:45:42.932Z,0.75
2022-10-19T09:48:32.245Z,0.80
2022-10-19T09:51:01.747Z,0.70
2022-10-19T09:53:29.998Z,0.98
2022-10-19T09:56:06.298Z,1.00
2022-10-19T09:58:34.759Z,1.00
2022-10-19T10:01:03.432Z,0.82
2022-10-19T10:03:36.651Z,0.90
2022-10-19T10:06:09.087Z,1.45
2022-10-19T10:08:51.147Z,0.95
2022-10-19T10:11:27.854Z,0.98
2022-10-19T10:13:57.525Z,0.90
2022-10-19T10:16:30.462Z,1.02
2022-10-19T10:19:00.853Z,1.27
2022-10-19T10:21:34.723Z,1.15
2022-10-19T10:24:10.701Z,0.93
2022-10-19T10:26:43.008Z,1.48
2022-10-19T10:29:21.924Z,1.00
2022-10-19T10:32:05.841Z,1.02
2022-10-19T10:34:58.350Z,1.12
2022-10-19T10:37:42.686Z,0.95
2022-10-19T10:40:28.070Z,1.00
2022-10-19T10:43:01.568Z,1.15
2022-10-19T10:45:38.312Z,1.58
2022-10-19T10:48:24.403Z,1.20
2022-10-19T10:50:52.171Z,1.27
2022-10-19T10:53:32.951Z,1.40
2022-10-19T10:55:59.930Z,1.20
2022-10-19T10:58:51.229Z,0.95
2022-10-19T11:01:24.119Z,1.20
2022-10-19T11:04:15.447Z,1.05
2022-10-19T11:06:47.625Z,1.23
2022-10-19T11:09:38.261Z,1.20
2022-10-19T11:12:09.158Z,0.95
2022-10-19T11:14:44.729Z,1.10
2022-10-19T11:17:22.353Z,1.12
2022-10-19T11:19:51.428Z,1.08
2022-10-19T11:22:39.669Z,1.23
2022-10-19T11:25:44.096Z,0.80
2022-10-19T11:28:13.784Z,0.80
2022-10-19T11:31:06.601Z,0.73
2022-10-19T11:33:39.393Z,1.05
2022-10-19T11:36:23.287Z,1.77
2022-10-19T11:39:07.461Z,0.93
2022-10-19T11:42:27.116Z,0.82
2022-10-19T11:45:05.809Z,1.23
2022-10-19T11:47:55.645Z,0.70
2022-10-19T11:50:34.657Z,1.05
2022-10-19T11:53:13.989Z,0.70
2022-10-19T11:55:43.869Z,0.80
2022-10-19T11:58:16.605Z,1.10
2022-10-19T12:00:56.661Z,1.30
2022-10-19T12:03:43.042Z,1.30
2022-10-19T12:06:39.780Z,1.33
2022-10-19T12:09:15.488Z,1.08
2022-10-19T12:11:57.653Z,1.33
2022-10-19T12:14:30.353Z,1.17
2022-10-19T12:17:01.651Z,1.30
2022-10-19T12:19:33.112Z,1.50
2022-10-19T12:22:04.242Z,1.42
2022-10-19T12:24:33.740Z,1.20
2022-10-19T12:27:01.338Z,1.20
2022-10-19T12:29:34.212Z,1.20
2022-10-19T12:32:04.840Z,1.30
2022-10-19T12:34:31.993Z,1.20
2022-10-19T12:37:15.348Z,1.17
2022-10-19T12:40:17.043Z,2.17
2022-10-19T12:42:54.003Z,1.30
2022-10-19T12:45:30.489Z,1.00
2022-10-19T12:48:11.197Z,1.00
2022-10-19T12:50:50.443Z,0.95
2022-10-19T12:53:31.760Z,0.93
2022-10-19T12:56:15.359Z,1.12
2022-10-19T12:58:46.706Z,1.35
2022-10-19T13:01:26.098Z,1.02
2022-10-19T13:04:30.255Z,0.85
2022-10-19T13:06:57.060Z,0.85
2022-10-19T13:09:33.077Z,1.40
2022-10-19T13:12:21.658Z,0.80
2022-10-19T13:14:54.774Z,0.95
2022-10-19T13:17:34.362Z,1.08
2022-10-19T13:20:13.760Z,0.90
2022-10-19T13:22:59.454Z,1.17
2022-10-19T13:25:41.773Z,0.80
2022-10-19T13:28:17.670Z,1.05
2022-10-19T13:30:44.560Z,1.40
2022-10-19T13:33:29.661Z,1.50
2022-10-19T13:35:59.850Z,1.30
2022-10-19T13:41:25.728Z,2.20
2022-10-19T13:44:01.588Z,1.35
2022-10-19T13:46:31.495Z,1.35
2022-10-19T13:49:01.385Z,1.30
2022-10-19T13:51:54.334Z,0.90
2022-10-19T13:54:52.441Z,1.35
2022-10-19T13:57:50.012Z,1.12
2022-10-19T14:00:22.518Z,1.23
2022-10-19T14:03:11.807Z,1.77
2022-10-19T14:05:47.526Z,1.45
2022-10-19T14:08:31.182Z,1.70
2022-10-19T14:11:13.355Z,1.45
2022-10-19T14:13:40.392Z,1.60
2022-10-19T14:16:07.799Z,1.62
2022-10-19T14:18:36.548Z,1.15
2022-10-19T14:21:08.945Z,1.20
2022-10-19T14:23:40.442Z,1.10
2022-10-19T14:26:11.620Z,0.98
2022-10-19T14:28:39.814Z,1.40
2022-10-19T14:31:17.478Z,1.17
2022-10-19T14:33:50.600Z,1.00
2022-10-19T14:36:23.377Z,1.58
2022-10-19T14:38:54.829Z,1.10
2022-10-19T14:41:27.626Z,1.37
2022-10-19T14:43:56.503Z,1.30
2022-10-19T14:46:31.961Z,0.98
2022-10-19T14:49:10.787Z,0.98
2022-10-19T14:51:52.419Z,1.37
2022-10-19T14:54:36.715Z,1.15
2022-10-19T14:57:12.333Z,1.02
2022-10-19T14:59:55.491Z,1.10
2022-10-19T15:02:24.713Z,1.12
2022-10-19T15:04:54.779Z,1.12
2022-10-19T15:07:42.062Z,1.60
2022-10-19T15:10:31.225Z,0.90
2022-10-19T15:13:04.627Z,1.10
2022-10-19T15:15:34.496Z,0.80
2022-10-19T15:18:01.473Z,1.30
2022-10-19T15:20:30.328Z,0.88
2022-10-19T15:22:58.609Z,0.80
2022-10-19T15:25:35.492Z,1.10
2022-10-19T15:28:40.762Z,1.20
2022-10-19T15:31:24.086Z,1.65
2022-10-19T15:33:55.407Z,1.17
2022-10-19T15:36:23.325Z,1.30
2022-10-19T15:39:11.505Z,1.80
2022-10-19T15:41:47.359Z,1.83
2022-10-19T15:44:40.853Z,1.23
2022-10-19T15:47:19.147Z,1.50
2022-10-19T15:49:51.532Z,0.90
2022-10-19T15:52:20.997Z,1.35
2022-10-19T15:54:49.016Z,1.10
2022-10-19T15:57:29.491Z,1.30
2022-10-19T15:59:58.533Z,1.42
2022-10-19T16:02:25.696Z,1.33
2022-10-19T16:04:54.448Z,1.00
2022-10-19T16:07:34.370Z,1.23
2022-10-19T16:10:01.638Z,1.10
2022-10-19T16:12:28.562Z,1.37
2022-10-19T16:14:55.793Z,1.33
2022-10-19T16:17:23.206Z,1.42
2022-10-19T16:19:50.498Z,1.40
2022-10-19T16:22:17.690Z,1.58
2022-10-19T16:24:44.623Z,1.62
2022-10-19T16:27:15.243Z,1.25
2022-10-19T16:29:43.603Z,1.30
2022-10-19T16:32:10.630Z,1.17
2022-10-19T16:34:38.113Z,0.93
2022-10-19T16:37:06.962Z,1.30
2022-10-19T16:39:34.822Z,2.42
2022-10-19T16:42:01.742Z,1.60
2022-10-19T16:44:28.724Z,1.60
2022-10-19T16:46:59.545Z,1.35
2022-10-19T16:49:26.689Z,1.00
2022-10-19T16:51:56.459Z,1.45
2022-10-19T16:54:26.797Z,1.23
2022-10-19T16:56:55.628Z,1.90
2022-10-19T16:59:22.831Z,1.50
2022-10-19T17:01:50.121Z,1.40
2022-10-19T17:04:20.659Z,1.37
2022-10-19T17:06:47.823Z,1.20
2022-10-19T17:09:40.382Z,1.50
2022-10-19T17:12:01.674Z,0.93
2022-10-19T17:14:28.608Z,1.55
2022-10-19T17:16:56.008Z,1.15
2022-10-19T17:19:23.766Z,1.00
2022-10-19T17:21:51.205Z,1.08
2022-10-19T17:24:22.130Z,1.20
2022-10-19T17:26:51.342Z,1.30
2022-10-19T17:29:19.088Z,1.15
2022-10-19T17:31:46.732Z,1.00
2022-10-19T17:34:14.041Z,1.23
2022-10-19T17:36:44.555Z,1.83
2022-10-19T17:39:18.221Z,1.10
2022-10-19T17:41:46.978Z,1.10
2022-10-19T17:44:14.550Z,1.37
2022-10-19T17:46:41.522Z,1.30
2022-10-19T17:49:09.023Z,1.20
2022-10-19T17:51:36.378Z,1.23
2022-10-19T17:54:08.898Z,2.10
2022-10-19T17:56:37.587Z,1.08
2022-10-19T17:59:07.527Z,1.52
2022-10-19T18:01:34.952Z,1.42
2022-10-19T18:04:01.941Z,1.73
2022-10-19T18:06:34.533Z,0.98
2022-10-19T18:09:03.174Z,1.20
2022-10-19T18:11:37.258Z,1.40
2022-10-19T18:14:06.485Z,1.87
2022-10-19T18:16:39.795Z,1.70
2022-10-19T18:19:07.650Z,2.00
2022-10-19T18:21:38.681Z,1.25
2022-10-19T18:24:09.057Z,1.85
2022-10-19T18:26:38.912Z,1.25
2022-10-19T18:29:16.560Z,1.10
2022-10-19T18:31:43.881Z,1.33
2022-10-19T18:34:15.292Z,1.48
2022-10-19T18:36:42.576Z,1.37
2022-10-19T18:39:12.875Z,1.10
2022-10-19T18:41:40.670Z,1.00
2022-10-19T18:44:08.180Z,1.50
2022-10-19T18:46:37.084Z,1.17
2022-10-19T18:49:06.821Z,1.90
2022-10-19T18:51:33.939Z,1.60
2022-10-19T18:54:01.121Z,2.00
2022-10-19T18:56:29.647Z,1.65
2022-10-19T18:58:57.206Z,1.30
2022-10-19T19:01:26.902Z,1.10
2022-10-19T19:03:56.436Z,1.77
2022-10-19T19:06:33.159Z,1.20
2022-10-19T19:09:02.416Z,1.30
2022-10-19T19:11:34.401Z,1.33
2022-10-19T19:14:15.739Z,1.70
2022-10-19T19:16:44.069Z,2.05
2022-10-19T19:19:16.737Z,1.30
2022-10-19T19:21:44.926Z,1.65
2022-10-19T19:24:15.100Z,1.42
2022-10-19T19:26:46.815Z,1.60
2022-10-19T19:29:14.017Z,2.00
2022-10-19T19:31:40.916Z,1.73
2022-10-19T19:34:09.453Z,1.70
2022-10-19T19:36:38.182Z,1.85
2022-10-19T19:39:05.702Z,1.73
2022-10-19T19:41:34.263Z,1.42
2022-10-19T19:44:01.257Z,1.30
2022-10-19T19:46:28.252Z,1.90
2022-10-19T19:49:05.280Z,1.37
2022-10-19T19:51:33.825Z,1.40
2022-10-19T19:54:00.781Z,1.33
2022-10-19T19:56:28.869Z,1.35
2022-10-19T19:58:57.306Z,1.33
2022-10-19T20:01:25.054Z,1.80
2022-10-19T20:03:52.317Z,1.45
2022-10-19T20:06:22.265Z,1.52
2022-10-19T20:08:52.269Z,1.87
2022-10-19T20:11:19.321Z,1.80
2022-10-19T20:13:46.291Z,1.52
2022-10-19T20:16:18.527Z,2.00
2022-10-19T20:18:47.413Z,1.20
2022-10-19T20:21:14.885Z,1.08
2022-10-19T20:23:45.710Z,1.27
2022-10-19T20:26:19.798Z,1.30
2022-10-19T20:28:47.020Z,2.08
2022-10-19T20:31:14.143Z,1.50
2022-10-19T20:33:42.776Z,1.30
2022-10-19T20:36:18.967Z,1.37
2022-10-19T20:38:49.008Z,1.60
2022-10-19T20:41:19.557Z,1.50
2022-10-19T20:43:46.519Z,2.40
2022-10-19T20:46:18.613Z,1.40
2022-10-19T20:48:45.901Z,2.25
2022-10-19T20:51:17.911Z,1.90
2022-10-19T20:53:46.874Z,1.58
2022-10-19T20:56:16.692Z,1.20
2022-10-19T20:58:45.211Z,1.65
2022-10-19T21:01:13.657Z,1.48
2022-10-19T21:03:45.394Z,1.73
2022-10-19T21:06:12.304Z,1.20
2022-10-19T21:08:39.289Z,1.40
2022-10-19T21:11:21.439Z,1.60
2022-10-19T21:13:49.135Z,1.92
2022-10-19T21:16:18.122Z,1.67
2022-10-19T21:18:46.957Z,2.03
2022-10-19T21:21:22.602Z,1.73
2022-10-19T21:23:53.664Z,1.60
2022-10-19T21:26:21.199Z,2.35
2022-10-19T21:28:49.448Z,1.77
2022-10-19T21:31:17.718Z,2.17
2022-10-19T21:33:45.121Z,1.85
2022-10-19T21:36:13.571Z,1.95
2022-10-19T21:38:41.848Z,1.60
2022-10-19T21:41:15.347Z,1.70
2022-10-19T21:43:43.120Z,2.03
2022-10-19T21:46:21.537Z,2.72
2022-10-19T21:48:48.902Z,2.62
2022-10-19T21:51:30.611Z,2.30
2022-10-19T21:53:58.145Z,1.75
2022-10-19T21:56:25.096Z,2.17
2022-10-19T21:58:53.646Z,1.83
2022-10-19T22:01:24.163Z,2.40
2022-10-19T22:04:05.033Z,2.30
2022-10-19T22:06:34.776Z,1.33
2022-10-19T22:09:03.407Z,2.15
2022-10-19T22:11:30.739Z,2.55
2022-10-19T22:14:00.327Z,1.60
2022-10-19T22:16:28.667Z,2.20
2022-10-19T22:18:56.026Z,2.10
2022-10-19T22:21:29.044Z,2.83
2022-10-19T22:23:58.239Z,1.58
2022-10-19T22:26:28.082Z,2.03
2022-10-19T22:28:57.076Z,1.85
2022-10-19T22:31:25.166Z,1.80
2022-10-19T22:33:52.079Z,2.08
2022-10-19T22:36:19.129Z,1.73
2022-10-19T22:38:46.110Z,1.77
2022-10-19T22:42:09.654Z,1.73
2022-10-19T22:44:36.577Z,1.77
2022-10-19T22:47:03.466Z,1.62
2022-10-19T22:49:30.454Z,2.15
2022-10-19T22:51:57.386Z,2.00
2022-10-19T22:54:24.372Z,1.90
2022-10-19T22:56:51.322Z,2.65
2022-10-19T22:59:18.217Z,1.67
2022-10-19T23:01:45.277Z,1.98
2022-10-19T23:04:12.189Z,1.62
2022-10-19T23:06:39.139Z,2.12
2022-10-19T23:09:06.193Z,2.20
2022-10-19T23:11:33.157Z,1.70
2022-10-19T23:14:00.089Z,1.85
2022-10-19T23:18:54.953Z,2.12
2022-10-19T23:21:21.893Z,1.58
2022-10-19T23:23:48.829Z,2.12
2022-10-19T23:26:20.743Z,1.80
2022-10-19T23:29:18.638Z,1.58
2022-10-19T23:31:45.601Z,1.50
2022-10-19T23:34:12.708Z,1.50
2022-10-19T23:36:39.606Z,2.17
2022-10-19T23:39:06.545Z,1.83
2022-10-19T23:41:33.595Z,2.62
2022-10-19T23:44:00.459Z,1.55
2022-10-19T23:46:27.383Z,2.30
2022-10-19T23:48:54.294Z,1.92
2022-10-19T23:51:22.225Z,1.62
2022-10-19T23:53:50.882Z,1.42
2022-10-19T23:56:29.101Z,1.52
2022-10-19T23:58:56.763Z,2.35
